Time;durP1;ratioP1;P1;durP2;ratioP2;P2;SDS_P1;SDS_P2;PMS_P1;PMS_P2;Temp;Humidity;BMP_temperature;BMP_pressure;BME280_temperature;BME280_humidity;BME280_pressure;Samples;Min_cycle;Max_cycle;Signal;HPM_P1;HPM_P2
2022/12/08 00:17:55;;;;;;;18.48;10.70;;;;;;;;;;21007062;28;20056;-62
2022/12/08 00:27:57;;;;;;;17.95;10.93;;;;;;;;;;21005426;28;20053;-60
2022/12/08 00:37:59;;;;;;;19.90;10.93;;;;;;;;;;21004985;28;20052;-62
2022/12/08 00:48:02;;;;;;;23.65;11.60;;;;;;;;;;21004393;28;20048;-59
2022/12/08 00:58:04;;;;;;;22.25;11.27;;;;;;;;;;21003465;28;20048;-58
2022/12/08 01:08:06;;;;;;;18.00;10.93;;;;;;;;;;21001397;28;20089;-59
2022/12/08 01:18:08;;;;;;;19.73;11.50;;;;;;;;;;21001683;28;20052;-60
2022/12/08 01:28:11;;;;;;;22.17;12.15;;;;;;;;;;21001903;28;20432;-62
2022/12/08 01:38:13;;;;;;;24.88;12.10;;;;;;;;;;20999823;28;20048;-62
2022/12/08 01:48:23;;;;;;;23.67;12.23;;;;;;;;;;20998781;28;20102;-62
2022/12/08 01:58:28;;;;;;;23.58;12.10;;;;;;;;;;20999348;28;20135;-65
2022/12/08 02:08:31;;;;;;;22.00;11.65;;;;;;;;;;20996943;28;20455;-63
2022/12/08 02:18:45;;;;;;;19.58;12.32;;;;;;;;;;20995545;28;20449;-64
2022/12/08 02:29:04;;;;;;;21.88;13.13;;;;;;;;;;20995392;28;20064;-63
2022/12/08 02:39:15;;;;;;;18.48;10.95;;;;;;;;;;20995917;28;20049;-65
2022/12/08 02:49:18;;;;;;;17.15;10.57;;;;;;;;;;20996066;28;20053;-65
2022/12/08 02:59:32;;;;;;;19.08;10.88;;;;;;;;;;20996239;28;20076;-63
2022/12/08 03:09:41;;;;;;;15.93;9.55;;;;;;;;;;20995483;28;20082;-63
2022/12/08 03:19:43;;;;;;;13.85;8.52;;;;;;;;;;20994689;28;20049;-62
2022/12/08 03:29:46;;;;;;;14.18;8.00;;;;;;;;;;20997226;28;20056;-63
2022/12/08 03:39:48;;;;;;;11.98;7.53;;;;;;;;;;21009495;28;20408;-60
2022/12/08 03:49:49;;;;;;;14.23;7.82;;;;;;;;;;21009013;28;20081;-63
2022/12/08 03:59:51;;;;;;;11.68;7.68;;;;;;;;;;21008072;28;20063;-63
2022/12/08 04:09:53;;;;;;;13.15;7.55;;;;;;;;;;21006797;28;20091;-59
2022/12/08 04:19:55;;;;;;;13.93;7.45;;;;;;;;;;21006236;28;20492;-60
2022/12/08 04:29:56;;;;;;;12.95;7.82;;;;;;;;;;21005412;28;20048;-58
2022/12/08 04:39:58;;;;;;;10.90;5.90;;;;;;;;;;21004217;28;20056;-58
2022/12/08 04:50:00;;;;;;;10.02;5.50;;;;;;;;;;21005224;28;20519;-57
2022/12/08 05:00:02;;;;;;;8.30;4.95;;;;;;;;;;21003890;28;20055;-61
2022/12/08 05:10:03;;;;;;;6.05;4.05;;;;;;;;;;20985950;28;20044;-60
2022/12/08 05:20:06;;;;;;;6.45;3.80;;;;;;;;;;21002194;28;20060;-60
2022/12/08 05:30:07;;;;;;;6.70;4.05;;;;;;;;;;21001119;28;20411;-60
2022/12/08 05:40:09;;;;;;;7.30;4.10;;;;;;;;;;20999313;28;20064;-61
2022/12/08 05:50:28;;;;;;;10.52;4.30;;;;;;;;;;20999691;28;20127;-63
2022/12/08 06:00:36;;;;;;;8.27;4.87;;;;;;;;;;20998658;28;20049;-63
2022/12/08 06:10:43;;;;;;;6.65;4.47;;;;;;;;;;20998174;28;20124;-62
2022/12/08 06:20:46;;;;;;;8.38;4.97;;;;;;;;;;20997348;28;20052;-60
2022/12/08 06:30:49;;;;;;;7.72;4.68;;;;;;;;;;20996611;28;20056;-63
2022/12/08 06:40:55;;;;;;;8.90;4.93;;;;;;;;;;20996332;28;20052;-62
2022/12/08 06:51:04;;;;;;;7.85;4.13;;;;;;;;;;20995724;28;20136;-61
2022/12/08 07:01:10;;;;;;;8.00;4.50;;;;;;;;;;20996185;28;20239;-63
2022/12/08 07:11:13;;;;;;;7.85;4.82;;;;;;;;;;21011511;28;20044;-62
2022/12/08 07:21:15;;;;;;;8.25;4.50;;;;;;;;;;21011239;28;20086;-61
2022/12/08 07:31:19;;;;;;;7.65;4.65;;;;;;;;;;21010204;28;20053;-62
2022/12/08 07:41:23;;;;;;;11.38;4.65;;;;;;;;;;21009232;28;20054;-64
2022/12/08 07:51:26;;;;;;;8.65;4.65;;;;;;;;;;21009919;28;20378;-61
2022/12/08 08:01:29;;;;;;;9.98;5.45;;;;;;;;;;21008902;28;20449;-65
2022/12/08 08:11:31;;;;;;;9.70;4.35;;;;;;;;;;21007839;28;20049;-61
2022/12/08 08:21:33;;;;;;;8.98;5.35;;;;;;;;;;21006978;28;20048;-59
2022/12/08 08:31:35;;;;;;;11.98;5.60;;;;;;;;;;21005867;28;20121;-60
2022/12/08 08:41:37;;;;;;;14.02;5.50;;;;;;;;;;21005305;28;20045;-61
2022/12/08 08:51:38;;;;;;;15.02;6.97;;;;;;;;;;20987200;28;20374;-62
2022/12/08 09:01:40;;;;;;;11.18;5.78;;;;;;;;;;21003301;28;20076;-62
2022/12/08 09:11:42;;;;;;;13.18;5.05;;;;;;;;;;20988780;28;20071;-59
2022/12/08 09:21:44;;;;;;;4.65;2.83;;;;;;;;;;21000355;28;20072;-60
2022/12/08 09:31:46;;;;;;;7.13;4.13;;;;;;;;;;21016877;28;20056;-59
2022/12/08 09:41:49;;;;;;;9.60;4.65;;;;;;;;;;21083173;28;20404;-64
2022/12/08 09:51:52;;;;;;;8.25;4.40;;;;;;;;;;21018653;28;20111;-62
2022/12/08 10:02:13;;;;;;;8.93;4.20;;;;;;;;;;21237745;27;20377;-61
2022/12/08 10:12:27;;;;;;;6.95;3.70;;;;;;;;;;21229173;27;20055;-61
2022/12/08 10:22:34;;;;;;;6.65;3.63;;;;;;;;;;21237089;27;20048;-64
2022/12/08 10:32:36;;;;;;;9.25;4.20;;;;;;;;;;21215434;27;20087;-68
2022/12/08 10:42:43;;;;;;;6.32;3.63;;;;;;;;;;21199467;27;20479;-63
2022/12/08 10:52:46;;;;;;;8.73;4.15;;;;;;;;;;21215953;27;20429;-62
2022/12/08 11:02:59;;;;;;;8.35;4.50;;;;;;;;;;21192948;27;20066;-64
2022/12/08 11:13:06;;;;;;;7.63;3.65;;;;;;;;;;21166936;27;20074;-68
2022/12/08 11:23:19;;;;;;;7.93;4.28;;;;;;;;;;21143643;28;20430;-65
2022/12/08 11:33:21;;;;;;;10.35;5.00;;;;;;;;;;21166624;28;20075;-64
2022/12/08 11:43:32;;;;;;;6.78;3.83;;;;;;;;;;21180550;27;20131;-66
2022/12/08 11:53:41;;;;;;;10.38;4.78;;;;;;;;;;21173391;28;20055;-72
2022/12/08 12:03:46;;;;;;;8.63;4.28;;;;;;;;;;21172470;28;20047;-68
2022/12/08 12:13:54;;;;;;;8.70;4.40;;;;;;;;;;21101090;28;20056;-66
2022/12/08 12:23:59;;;;;;;11.40;3.92;;;;;;;;;;21152289;28;20073;-65
2022/12/08 12:34:07;;;;;;;8.43;4.32;;;;;;;;;;21166920;28;20047;-62
2022/12/08 12:44:22;;;;;;;9.80;4.30;;;;;;;;;;21168336;28;20043;-74
2022/12/08 12:54:26;;;;;;;8.43;3.45;;;;;;;;;;21168039;28;20513;-72
2022/12/08 13:04:30;;;;;;;11.63;4.22;;;;;;;;;;21156020;28;20516;-67
2022/12/08 13:14:34;;;;;;;8.45;3.33;;;;;;;;;;21165060;28;20060;-70
2022/12/08 13:24:36;;;;;;;9.32;5.25;;;;;;;;;;21165072;28;20069;-65
2022/12/08 13:34:44;;;;;;;12.55;4.85;;;;;;;;;;21164888;28;20126;-65
2022/12/08 13:44:56;;;;;;;8.30;4.43;;;;;;;;;;21164446;28;20043;-65
2022/12/08 13:55:01;;;;;;;4.90;3.20;;;;;;;;;;21163548;28;20055;-63
2022/12/08 14:05:04;;;;;;;6.63;4.10;;;;;;;;;;21163390;28;20048;-66
2022/12/08 14:15:07;;;;;;;6.20;3.00;;;;;;;;;;21165498;28;20407;-65
2022/12/08 14:25:13;;;;;;;3.97;2.50;;;;;;;;;;21164861;28;20055;-65
2022/12/08 14:35:18;;;;;;;4.45;2.67;;;;;;;;;;21161550;28;20047;-65
2022/12/08 14:45:21;;;;;;;7.47;4.22;;;;;;;;;;21172572;28;20051;-65
2022/12/08 14:55:23;;;;;;;4.97;2.67;;;;;;;;;;21176880;28;20138;-65
2022/12/08 15:05:28;;;;;;;6.35;2.97;;;;;;;;;;21176484;28;20054;-65
2022/12/08 15:15:31;;;;;;;6.32;2.78;;;;;;;;;;21176146;28;20047;-64
2022/12/08 15:25:34;;;;;;;5.70;2.55;;;;;;;;;;21175380;28;20054;-67
2022/12/08 15:35:35;;;;;;;7.03;2.60;;;;;;;;;;21174262;28;20131;-66
2022/12/08 15:45:37;;;;;;;6.32;3.00;;;;;;;;;;21173519;28;20048;-65
2022/12/08 15:55:39;;;;;;;8.75;5.20;;;;;;;;;;21172950;28;20087;-67
2022/12/08 16:05:41;;;;;;;6.65;2.83;;;;;;;;;;21173825;28;20055;-67
2022/12/08 16:15:43;;;;;;;4.85;3.03;;;;;;;;;;21172420;28;20055;-63
2022/12/08 16:25:45;;;;;;;5.03;2.20;;;;;;;;;;21169497;28;20044;-64
2022/12/08 16:35:47;;;;;;;3.05;1.67;;;;;;;;;;21168295;28;20177;-63
2022/12/08 16:45:49;;;;;;;8.10;1.60;;;;;;;;;;21168711;28;20058;-67
2022/12/08 16:55:51;;;;;;;4.03;1.30;;;;;;;;;;21168121;28;20519;-64
2022/12/08 17:05:53;;;;;;;5.35;1.50;;;;;;;;;;21167068;28;20043;-65
2022/12/08 17:15:54;;;;;;;4.00;1.10;;;;;;;;;;21168309;28;20051;-63
2022/12/08 17:26:00;;;;;;;3.80;1.52;;;;;;;;;;21167144;28;20476;-66
2022/12/08 17:36:02;;;;;;;5.10;2.17;;;;;;;;;;21165553;28;20058;-67
2022/12/08 17:46:04;;;;;;;3.30;1.48;;;;;;;;;;21164616;28;20048;-68
2022/12/08 17:56:15;;;;;;;3.25;1.40;;;;;;;;;;21164003;28;20059;-66
2022/12/08 18:06:18;;;;;;;4.60;1.10;;;;;;;;;;21164489;28;20407;-67
2022/12/08 18:16:21;;;;;;;2.92;1.55;;;;;;;;;;21167463;28;20051;-67
2022/12/08 18:26:23;;;;;;;7.47;2.92;;;;;;;;;;21182129;28;20055;-69
2022/12/08 18:36:26;;;;;;;7.18;2.53;;;;;;;;;;21181253;28;20059;-68
2022/12/08 18:46:28;;;;;;;6.97;3.72;;;;;;;;;;21178959;27;20075;-67
2022/12/08 18:56:31;;;;;;;5.25;3.45;;;;;;;;;;21176596;28;20055;-68
2022/12/08 19:06:36;;;;;;;6.78;3.50;;;;;;;;;;21177622;28;20039;-67
2022/12/08 19:16:38;;;;;;;4.30;2.65;;;;;;;;;;21175170;28;20408;-65
2022/12/08 19:26:40;;;;;;;9.45;4.72;;;;;;;;;;21174975;27;20043;-68
2022/12/08 19:36:42;;;;;;;7.78;3.70;;;;;;;;;;21174652;28;20092;-66
2022/12/08 19:46:44;;;;;;;7.22;3.63;;;;;;;;;;21172618;28;20050;-68
2022/12/08 19:56:46;;;;;;;7.03;3.65;;;;;;;;;;21173156;28;20055;-67
2022/12/08 20:06:49;;;;;;;7.35;4.72;;;;;;;;;;21171389;28;20078;-67
2022/12/08 20:16:52;;;;;;;8.38;4.57;;;;;;;;;;21171440;28;20051;-65
2022/12/08 20:26:53;;;;;;;8.57;4.65;;;;;;;;;;21170141;28;20066;-68
2022/12/08 20:36:55;;;;;;;8.05;4.45;;;;;;;;;;21168279;28;20051;-66
2022/12/08 20:46:57;;;;;;;10.77;5.65;;;;;;;;;;21169425;28;20495;-68
2022/12/08 20:57:00;;;;;;;8.90;5.45;;;;;;;;;;21167866;28;20116;-65
2022/12/08 21:07:03;;;;;;;10.95;6.28;;;;;;;;;;21166625;28;20039;-67
2022/12/08 21:17:06;;;;;;;11.68;6.35;;;;;;;;;;21166172;28;20048;-68
2022/12/08 21:27:08;;;;;;;11.25;6.75;;;;;;;;;;21165125;28;20048;-66
2022/12/08 21:37:11;;;;;;;10.32;5.78;;;;;;;;;;21167416;28;20051;-66
2022/12/08 21:47:13;;;;;;;12.23;6.93;;;;;;;;;;21165759;28;20044;-68
2022/12/08 21:57:15;;;;;;;15.63;7.22;;;;;;;;;;21162598;28;20056;-68
2022/12/08 22:07:17;;;;;;;11.70;6.70;;;;;;;;;;21163451;28;20044;-66
2022/12/08 22:17:19;;;;;;;9.77;5.82;;;;;;;;;;21163159;28;20058;-67
2022/12/08 22:27:22;;;;;;;14.85;6.95;;;;;;;;;;21163431;28;20043;-66
2022/12/08 22:37:24;;;;;;;10.23;5.45;;;;;;;;;;21162356;28;20040;-69
2022/12/08 22:47:25;;;;;;;10.40;5.82;;;;;;;;;;21162233;28;20411;-69
2022/12/08 22:57:28;;;;;;;10.05;5.32;;;;;;;;;;21161040;28;20506;-67
2022/12/08 23:07:30;;;;;;;3.53;2.10;;;;;;;;;;21173397;28;20044;-67
2022/12/08 23:17:40;;;;;;;2.47;1.25;;;;;;;;;;21176143;28;20048;-66
2022/12/08 23:27:42;;;;;;;4.95;1.42;;;;;;;;;;21174429;28;20126;-66
2022/12/08 23:37:44;;;;;;;4.00;0.93;;;;;;;;;;21173386;28;20061;-65
2022/12/08 23:47:45;;;;;;;4.22;1.30;;;;;;;;;;21174076;28;20051;-66
2022/12/08 23:57:48;;;;;;;4.40;0.85;;;;;;;;;;21173286;28;20067;-66
